Time;durP1;ratioP1;P1;durP2;ratioP2;P2;SDS_P1;SDS_P2;PMS_P1;PMS_P2;Temp;Humidity;BMP_temperature;BMP_pressure;BME280_temperature;BME280_humidity;BME280_pressure;Samples;Min_cycle;Max_cycle;Signal;HPM_P1;HPM_P2
2023/01/17 19:12:55;;;;;;;14.25;8.85;;;;;;;6.35;100.00;98073.78;5125344;27;20357;-77
2023/01/17 19:15:23;;;;;;;14.90;9.65;;;;;;;6.30;100.00;98084.81;5104258;28;20046;-77
2023/01/17 19:17:51;;;;;;;14.77;9.52;;;;;;;6.17;100.00;98084.59;5108805;28;20036;-77
2023/01/17 19:20:20;;;;;;;17.13;9.30;;;;;;;6.14;100.00;98079.78;5107902;28;20047;-77
2023/01/17 19:22:48;;;;;;;14.27;9.07;;;;;;;6.03;100.00;98087.38;5107009;28;20047;-77
2023/01/17 19:25:16;;;;;;;16.55;9.10;;;;;;;6.07;100.00;98084.06;5092212;28;20031;-77
2023/01/17 19:27:43;;;;;;;15.57;8.68;;;;;;;5.91;100.00;98085.22;5109148;28;20397;-76
2023/01/17 19:30:12;;;;;;;15.38;9.57;;;;;;;5.96;100.00;98083.50;5115587;28;20043;-76
2023/01/17 19:32:42;;;;;;;14.50;8.55;;;;;;;6.05;100.00;98085.19;5115522;28;20052;-74
2023/01/17 19:35:12;;;;;;;15.40;8.75;;;;;;;6.07;100.00;98076.72;5089899;28;20043;-74
2023/01/17 19:37:47;;;;;;;14.65;8.05;;;;;;;5.91;100.00;98071.66;5122592;28;20405;-75
2023/01/17 19:40:18;;;;;;;12.38;8.07;;;;;;;5.89;100.00;98076.59;5110393;28;20046;-75
2023/01/17 19:42:46;;;;;;;17.85;8.75;;;;;;;5.89;100.00;98063.03;5112171;28;20048;-75
2023/01/17 19:45:15;;;;;;;17.90;10.32;;;;;;;5.97;100.00;98058.72;5108346;28;20036;-75
2023/01/17 19:47:43;;;;;;;15.20;8.50;;;;;;;6.04;100.00;98069.19;5106949;28;20058;-76
2023/01/17 19:50:11;;;;;;;15.15;9.30;;;;;;;5.99;100.00;98067.38;5105298;28;20055;-75
2023/01/17 19:52:40;;;;;;;14.23;8.20;;;;;;;5.91;100.00;98062.69;5115509;28;20056;-76
2023/01/17 19:55:09;;;;;;;14.48;8.57;;;;;;;5.91;100.00;98066.22;5087066;28;20043;-77
2023/01/17 19:57:39;;;;;;;14.43;8.60;;;;;;;5.87;100.00;98059.81;5089897;28;20036;-76
2023/01/17 20:00:11;;;;;;;15.68;9.43;;;;;;;5.85;100.00;98055.78;5095049;28;20494;-76
2023/01/17 20:02:39;;;;;;;15.32;9.43;;;;;;;5.92;100.00;98067.81;5111772;28;20095;-77
2023/01/17 20:05:08;;;;;;;17.60;9.13;;;;;;;5.85;100.00;98059.31;5077066;28;20052;-76
2023/01/17 20:07:36;;;;;;;13.80;8.70;;;;;;;5.80;100.00;98054.03;5102827;28;20046;-76
2023/01/17 20:10:04;;;;;;;15.35;8.93;;;;;;;5.75;100.00;98052.25;5068879;28;20442;-76
2023/01/17 20:12:32;;;;;;;13.63;8.50;;;;;;;5.77;100.00;98055.44;5093524;28;20052;-77
2023/01/17 20:15:00;;;;;;;13.88;7.85;;;;;;;5.77;100.00;98041.09;5102195;28;20047;-78
2023/01/17 20:17:30;;;;;;;15.98;9.70;;;;;;;5.78;100.00;98067.09;5093947;28;20058;-76
2023/01/17 20:20:03;;;;;;;16.58;9.18;;;;;;;5.67;100.00;98046.75;5098113;28;20052;-74
2023/01/17 20:22:31;;;;;;;15.68;9.05;;;;;;;5.78;100.00;98056.25;5086502;28;20992;-69
2023/01/17 20:24:59;;;;;;;17.00;10.07;;;;;;;5.67;100.00;98038.63;5063227;28;20103;-70
2023/01/17 20:27:27;;;;;;;16.48;8.65;;;;;;;6.02;100.00;98050.50;5077786;28;20051;-70
2023/01/17 20:29:58;;;;;;;15.57;8.63;;;;;;;5.94;100.00;98048.50;5073854;28;20044;-70
2023/01/17 20:32:45;;;;;;;18.10;9.88;;;;;;;5.86;100.00;98036.50;5080770;28;20487;-70
2023/01/17 20:35:14;;;;;;;16.17;9.55;;;;;;;5.82;100.00;98023.88;5065990;28;20415;-70
2023/01/17 20:37:42;;;;;;;18.25;10.35;;;;;;;5.87;100.00;98023.72;5084674;28;20052;-70
2023/01/17 20:40:11;;;;;;;20.25;10.25;;;;;;;5.81;100.00;98022.25;5079319;28;20036;-70
2023/01/17 20:42:39;;;;;;;15.80;9.98;;;;;;;5.92;100.00;98029.81;5081538;28;20044;-69
2023/01/17 20:45:08;;;;;;;20.50;9.57;;;;;;;5.84;100.00;98011.59;5081371;28;20067;-70
2023/01/17 20:47:37;;;;;;;20.17;10.60;;;;;;;5.75;100.00;98021.56;5086115;28;20521;-70
2023/01/17 20:50:09;;;;;;;19.10;10.95;;;;;;;5.79;100.00;98022.56;5075428;28;20501;-70
2023/01/17 20:52:37;;;;;;;19.98;12.25;;;;;;;5.90;100.00;98036.66;5092326;28;20051;-69
2023/01/17 20:55:07;;;;;;;20.13;11.30;;;;;;;5.79;100.00;98030.72;5094318;28;20039;-70
2023/01/17 20:57:35;;;;;;;17.45;10.50;;;;;;;5.68;100.00;98021.22;5096673;28;20048;-71
2023/01/17 21:00:04;;;;;;;19.73;11.18;;;;;;;5.72;100.00;98030.34;5072882;28;20067;-70
2023/01/17 21:02:32;;;;;;;19.23;10.13;;;;;;;5.66;100.00;98040.53;5073087;28;20047;-70
2023/01/17 21:05:02;;;;;;;16.92;9.50;;;;;;;5.57;100.00;98031.53;5072059;28;20055;-70
2023/01/17 21:07:30;;;;;;;16.15;8.75;;;;;;;5.64;100.00;98029.19;5094415;28;20039;-71
2023/01/17 21:09:58;;;;;;;17.33;9.82;;;;;;;5.68;100.00;98026.66;5072275;28;20829;-70
2023/01/17 21:12:32;;;;;;;15.60;8.48;;;;;;;5.70;100.00;98029.84;5088933;28;20060;-70
2023/01/17 21:15:24;;;;;;;14.05;9.43;;;;;;;5.65;100.00;98031.59;5085861;28;20055;-70
2023/01/17 21:17:55;;;;;;;16.48;10.43;;;;;;;5.75;100.00;98027.81;5053393;28;20059;-69
2023/01/17 21:20:26;;;;;;;15.27;9.68;;;;;;;5.83;100.00;98030.88;5078134;28;20051;-68
2023/01/17 21:22:55;;;;;;;13.63;8.52;;;;;;;5.74;100.00;98034.38;5079335;28;20060;-68
2023/01/17 21:25:23;;;;;;;14.25;9.52;;;;;;;5.85;100.00;98023.22;5097394;28;20493;-68
2023/01/17 21:27:51;;;;;;;16.98;9.18;;;;;;;5.82;100.00;98019.22;5077942;28;20499;-68
2023/01/17 21:30:19;;;;;;;13.43;8.50;;;;;;;5.85;100.00;98023.22;5074823;28;20049;-69
2023/01/17 21:32:47;;;;;;;15.10;8.80;;;;;;;5.81;100.00;98022.25;5071366;28;20055;-69
2023/01/17 21:35:16;;;;;;;14.23;8.90;;;;;;;5.84;100.00;98021.63;5085343;28;20055;-69
2023/01/17 21:37:49;;;;;;;14.85;9.30;;;;;;;5.71;100.00;98034.97;5057298;28;20059;-68
2023/01/17 21:40:18;;;;;;;12.57;8.43;;;;;;;5.72;100.00;98019.50;5074712;28;20059;-68
2023/01/17 21:42:46;;;;;;;14.40;8.07;;;;;;;5.81;100.00;98025.75;5092910;28;20048;-69
2023/01/17 21:45:14;;;;;;;11.82;7.93;;;;;;;5.73;100.00;98012.97;5085575;28;20044;-70
2023/01/17 21:47:43;;;;;;;11.75;7.57;;;;;;;5.69;100.00;98010.06;5090710;28;20052;-69
2023/01/17 21:50:11;;;;;;;13.90;8.18;;;;;;;5.73;100.00;98004.81;5090511;28;20063;-69
2023/01/17 21:52:55;;;;;;;15.38;8.32;;;;;;;5.85;100.00;98010.47;5073616;28;20060;-69
2023/01/17 22:01:14;;;;;;;36.90;17.33;;;;;;;5.56;100.00;98006.31;5087369;28;20047;-67
2023/01/17 22:03:48;;;;;;;25.17;13.75;;;;;;;5.26;100.00;98024.94;5092114;28;20056;-69
2023/01/17 22:06:16;;;;;;;17.17;9.85;;;;;;;5.01;100.00;98018.19;5083900;28;20043;-70
2023/01/17 22:08:45;;;;;;;13.57;8.68;;;;;;;5.02;100.00;98023.31;5090273;28;20060;-68
2023/01/17 22:11:19;;;;;;;13.00;8.35;;;;;;;4.91;100.00;98019.22;5098653;28;20051;-68
2023/01/17 22:13:47;;;;;;;;;;;;;;;4.97;100.00;98028.84;5075287;28;20049;-68
2023/01/17 22:16:18;;;;;;;10.73;8.02;;;;;;;4.89;100.00;98027.66;5078275;28;19943;-68
2023/01/17 22:18:46;;;;;;;14.00;8.95;;;;;;;4.97;100.00;98031.56;5091394;28;20044;-68
2023/01/17 22:21:20;;;;;;;13.52;9.10;;;;;;;4.94;100.00;98030.25;5096414;28;20048;-70
2023/01/17 22:23:57;;;;;;;16.20;9.52;;;;;;;4.95;100.00;98041.91;5049735;28;20734;-69
2023/01/17 22:26:29;;;;;;;18.20;10.00;;;;;;;5.03;100.00;98043.09;5078431;28;20040;-69
2023/01/17 22:29:01;;;;;;;13.82;9.45;;;;;;;5.27;100.00;98047.44;5113069;28;20054;-69
2023/01/17 22:31:30;;;;;;;20.67;9.48;;;;;;;5.21;100.00;98046.75;5093991;28;20039;-69
2023/01/17 22:34:00;;;;;;;15.57;10.35;;;;;;;5.28;100.00;98059.88;5092512;28;20048;-69
2023/01/17 22:36:32;;;;;;;18.23;9.77;;;;;;;5.30;100.00;98061.19;5092636;28;20048;-69
2023/01/17 22:39:01;;;;;;;17.02;10.65;;;;;;;5.42;100.00;98059.84;5092616;28;20055;-69
2023/01/17 22:41:30;;;;;;;13.43;9.10;;;;;;;5.28;100.00;98055.25;5092473;28;20052;-69
2023/01/17 22:44:01;;;;;;;15.02;8.70;;;;;;;5.38;100.00;98063.16;5096000;28;20381;-69
2023/01/17 22:46:31;;;;;;;13.73;8.82;;;;;;;5.23;100.00;98063.53;5092262;28;20055;-69
2023/01/17 22:48:59;;;;;;;14.88;8.60;;;;;;;5.30;100.00;98063.09;5074420;28;20052;-69
2023/01/17 22:51:27;;;;;;;14.52;8.43;;;;;;;5.14;100.00;98065.34;5092661;28;20727;-69
2023/01/17 22:53:58;;;;;;;12.48;7.63;;;;;;;5.27;100.00;98061.78;5091835;28;20445;-69
2023/01/17 22:56:31;;;;;;;11.45;7.20;;;;;;;5.27;100.00;98064.50;5108600;28;20050;-78
2023/01/17 22:59:00;;;;;;;11.88;7.68;;;;;;;5.32;100.00;98066.31;5093744;28;20044;-78
2023/01/17 23:01:30;;;;;;;13.80;8.52;;;;;;;5.41;100.00;98064.44;5092459;28;20044;-78
2023/01/17 23:04:01;;;;;;;13.27;8.00;;;;;;;5.19;100.00;98063.31;5107330;28;20051;-79
2023/01/17 23:06:35;;;;;;;12.70;7.63;;;;;;;5.32;100.00;98064.38;5094906;28;20394;-78
2023/01/17 23:09:09;;;;;;;17.35;9.38;;;;;;;5.41;100.00;98061.75;5112975;28;20050;-78
2023/01/17 23:11:42;;;;;;;15.35;8.98;;;;;;;5.46;100.00;98055.38;5112399;28;20391;-77
2023/01/17 23:14:22;;;;;;;14.80;7.75;;;;;;;5.44;100.00;98046.75;5112434;28;20051;-78
2023/01/17 23:19:49;;;;;;;12.90;7.95;;;;;;;5.35;100.00;98042.09;5092379;28;20051;-78
2023/01/17 23:22:25;;;;;;;15.20;7.90;;;;;;;5.34;100.00;98048.59;5074465;28;20044;-78
2023/01/17 23:24:59;;;;;;;13.32;8.00;;;;;;;5.34;100.00;98036.97;5092379;28;20036;-78
2023/01/17 23:30:24;;;;;;;12.93;7.75;;;;;;;5.32;100.00;98039.19;5074178;28;20047;-78
2023/01/17 23:32:55;;;;;;;13.32;7.70;;;;;;;5.26;100.00;98038.50;5092034;28;20040;-78
2023/01/17 23:35:28;;;;;;;12.73;7.22;;;;;;;5.19;100.00;98035.41;5092045;28;20051;-78
2023/01/17 23:43:33;;;;;;;13.93;7.97;;;;;;;5.27;100.00;98050.94;5070716;28;20068;-78
2023/01/17 23:46:02;;;;;;;13.75;8.20;;;;;;;5.38;100.00;98052.31;5092013;28;20044;-78
2023/01/17 23:48:30;;;;;;;13.57;8.23;;;;;;;5.54;100.00;98046.53;5092005;28;20075;-78
2023/01/17 23:51:08;;;;;;;13.65;8.55;;;;;;;5.42;100.00;98062.56;5091889;28;20047;-78
2023/01/17 23:53:37;;;;;;;16.02;8.50;;;;;;;5.34;100.00;98059.44;5091797;28;20048;-78
2023/01/17 23:56:25;;;;;;;13.00;8.02;;;;;;;5.34;100.00;98054.03;5103461;28;20410;-78
2023/01/17 23:58:53;;;;;;;14.05;8.55;;;;;;;5.42;100.00;98055.19;5114074;28;20052;-78
